Terminal Aerodrome Forecast
Issued by NWS Memphis, TN

Home | Current Version | Previous Version | Text Only | Print | Product List | Glossary On
Versions: 1 2 3 4 5 6 7 8 9 10 11 12 13 14 15 16 17 18 19
000
FTUS44 KMEG 201732
TAFJBR
TAF
KJBR 201732Z 2018/2118 18018G26KT P6SM VCSH OVC025
     FM202200 17017G23KT P6SM VCSH SCT030 BKN040 BKN250
     FM210400 20014KT P6SM VCTS BKN035CB OVC070
      TEMPO 2104/2108 1SM +TSRA OVC008CB
     FM210800 01012KT 3SM -RA OVC005
     FM211400 03012G18KT 2SM RA OVC003=

USA.gov is the U.S. government's official web portal to all federal, state and local government web resources and services.